Time;durP1;ratioP1;P1;durP2;ratioP2;P2;SDS_P1;SDS_P2;PMS_P1;PMS_P2;Temp;Humidity;BMP_temperature;BMP_pressure;BME280_temperature;BME280_humidity;BME280_pressure;Samples;Min_cycle;Max_cycle;Signal;HPM_P1;HPM_P2
2022/04/30 00:01:17;;;;;;;;;;;20.70;54.80;;;;;;5028181;28;19916;-52
2022/04/30 00:03:43;;;;;;;;;;;20.70;54.80;;;;;;5027572;28;19941;-53
2022/04/30 00:06:08;;;;;;;;;;;20.70;54.80;;;;;;5027841;28;19923;-52
2022/04/30 00:08:33;;;;;;;;;;;20.70;54.80;;;;;;5027696;28;19917;-55
2022/04/30 00:10:59;;;;;;;;;;;20.70;54.80;;;;;;5028326;28;20297;-54
2022/04/30 00:13:24;;;;;;;;;;;20.70;54.80;;;;;;5028035;28;19923;-53
2022/04/30 00:15:50;;;;;;;;;;;20.70;54.80;;;;;;5028288;28;19913;-55
2022/04/30 00:18:15;;;;;;;;;;;20.70;54.80;;;;;;5025522;28;19917;-54
2022/04/30 00:20:45;;;;;;;;;;;20.70;54.80;;;;;;5027563;28;19917;-55
2022/04/30 00:23:19;;;;;;;;;;;20.70;54.80;;;;;;5027246;28;19918;-53
2022/04/30 00:25:46;;;;;;;;;;;20.70;54.80;;;;;;5027111;28;19924;-53
2022/04/30 00:28:12;;;;;;;;;;;20.70;54.80;;;;;;5027632;28;19955;-54
2022/04/30 00:30:37;;;;;;;;;;;20.70;54.80;;;;;;5025116;28;19945;-55
2022/04/30 00:33:09;;;;;;;;;;;20.70;54.80;;;;;;5009042;28;19921;-55
2022/04/30 00:35:34;;;;;;;;;;;20.70;54.80;;;;;;5025363;28;19921;-53
2022/04/30 00:37:59;;;;;;;;;;;20.70;54.70;;;;;;5026933;28;19913;-54
2022/04/30 00:40:25;;;;;;;;;;;20.70;54.70;;;;;;5026366;28;19913;-55
2022/04/30 00:42:50;;;;;;;;;;;20.70;54.80;;;;;;5026599;28;19913;-55
2022/04/30 00:45:16;;;;;;;;;;;20.70;54.70;;;;;;5026452;28;19921;-55
2022/04/30 00:47:41;;;;;;;;;;;20.70;54.70;;;;;;5027144;28;19920;-55
2022/04/30 00:50:07;;;;;;;;;;;20.70;54.70;;;;;;5026161;28;20633;-55
2022/04/30 00:52:32;;;;;;;;;;;20.70;54.80;;;;;;5026655;28;20004;-55
2022/04/30 00:54:59;;;;;;;;;;;20.70;54.80;;;;;;5025531;28;20259;-55
2022/04/30 00:57:25;;;;;;;;;;;20.70;54.80;;;;;;5026824;28;19996;-52
2022/04/30 00:59:52;;;;;;;;;;;20.70;54.80;;;;;;5026433;28;20333;-53
2022/04/30 01:02:18;;;;;;;;;;;20.70;54.80;;;;;;5024639;28;20362;-53
2022/04/30 01:04:44;;;;;;;;;;;20.70;54.80;;;;;;5026262;28;19925;-51
2022/04/30 01:07:09;;;;;;;;;;;20.70;54.80;;;;;;5026490;28;20289;-54
2022/04/30 01:09:35;;;;;;;;;;;20.70;54.70;;;;;;5026149;28;20024;-55
2022/04/30 01:12:03;;;;;;;;;;;20.70;54.80;;;;;;5025068;28;19913;-55
2022/04/30 01:14:29;;;;;;;;;;;20.60;54.70;;;;;;5026046;28;19921;-54
2022/04/30 01:16:57;;;;;;;;;;;20.60;54.70;;;;;;5026543;28;19913;-53
2022/04/30 01:19:23;;;;;;;;;;;20.60;54.80;;;;;;5025689;28;19920;-53
2022/04/30 01:21:50;;;;;;;;;;;20.60;54.70;;;;;;5025369;28;19913;-53
2022/04/30 01:24:19;;;;;;;;;;;20.60;54.70;;;;;;5026050;28;20285;-53
2022/04/30 01:26:45;;;;;;;;;;;20.60;54.70;;;;;;5007813;28;19939;-53
2022/04/30 01:29:10;;;;;;;;;;;20.60;54.60;;;;;;5025655;28;20398;-53
2022/04/30 01:39:52;;;;;;;;;;;20.60;54.60;;;;;;5025129;28;20028;-54
2022/04/30 01:42:17;;;;;;;;;;;20.60;54.60;;;;;;5025476;28;19917;-53
2022/04/30 01:44:46;;;;;;;;;;;20.60;54.60;;;;;;5025537;28;19913;-52
2022/04/30 01:47:12;;;;;;;;;;;20.60;54.60;;;;;;5025403;28;19921;-54
2022/04/30 01:49:37;;;;;;;;;;;20.60;54.60;;;;;;5025014;28;20444;-53
2022/04/30 01:52:06;;;;;;;;;;;20.60;55.20;;;;;;5025140;28;19913;-54
2022/04/30 01:54:32;;;;;;;;;;;20.60;54.60;;;;;;5024871;28;19913;-54
2022/04/30 01:56:57;;;;;;;;;;;20.60;54.70;;;;;;5024787;28;20294;-54
2022/04/30 01:59:23;;;;;;;;;;;20.60;54.60;;;;;;5024689;28;19919;-54
2022/04/30 02:01:48;;;;;;;;;;;20.50;54.50;;;;;;5023783;28;19914;-53
2022/04/30 02:04:14;;;;;;;;;;;20.60;54.60;;;;;;5024110;28;19920;-52
2022/04/30 02:06:39;;;;;;;;;;;20.60;54.60;;;;;;5023965;28;20669;-54
2022/04/30 02:09:05;;;;;;;;;;;20.60;54.60;;;;;;5023795;28;19913;-52
2022/04/30 02:11:30;;;;;;;;;;;20.50;54.50;;;;;;5024757;28;19917;-52
2022/04/30 02:13:56;;;;;;;;;;;20.60;54.60;;;;;;5024214;28;20002;-54
2022/04/30 02:16:22;;;;;;;;;;;20.60;54.50;;;;;;5024661;28;19921;-54
2022/04/30 02:18:47;;;;;;;;;;;20.60;54.50;;;;;;5022678;28;19913;-55
2022/04/30 02:21:13;;;;;;;;;;;20.60;54.50;;;;;;5023533;28;19920;-54
2022/04/30 02:23:39;;;;;;;;;;;20.60;54.50;;;;;;5006577;28;19914;-54
2022/04/30 02:26:05;;;;;;;;;;;20.50;54.40;;;;;;5022596;28;19988;-52
2022/04/30 02:28:30;;;;;;;;;;;20.50;54.40;;;;;;5024275;28;19967;-52
2022/04/30 02:30:56;;;;;;;;;;;20.50;54.40;;;;;;5024372;28;19913;-53
2022/04/30 02:33:22;;;;;;;;;;;20.50;54.40;;;;;;5022997;28;20365;-54
2022/04/30 02:35:47;;;;;;;;;;;20.50;54.40;;;;;;5024779;28;19920;-55
2022/04/30 02:38:13;;;;;;;;;;;20.50;54.40;;;;;;5023194;28;19913;-55
2022/04/30 02:40:39;;;;;;;;;;;20.50;54.40;;;;;;5025697;28;20004;-55
2022/04/30 02:43:08;;;;;;;;;;;20.50;54.40;;;;;;5025266;28;20016;-54
2022/04/30 02:45:35;;;;;;;;;;;20.50;54.40;;;;;;5025727;28;20397;-53
2022/04/30 02:48:02;;;;;;;;;;;20.50;54.40;;;;;;5029041;28;19920;-54
2022/04/30 02:50:28;;;;;;;;;;;20.50;54.40;;;;;;5037798;28;20382;-55
2022/04/30 02:52:56;;;;;;;;;;;20.50;54.40;;;;;;5032840;28;19924;-54
2022/04/30 02:55:22;;;;;;;;;;;20.50;54.40;;;;;;5024971;28;20203;-52
2022/04/30 03:00:41;;;;;;;;;;;20.50;54.40;;;;;;5024522;28;20381;-53
2022/04/30 03:03:07;;;;;;;;;;;20.50;54.40;;;;;;5024128;28;20003;-55
2022/04/30 03:05:34;;;;;;;;;;;20.50;54.40;;;;;;5023795;28;19921;-55
2022/04/30 03:08:00;;;;;;;;;;;20.50;54.40;;;;;;5023772;28;19914;-53
2022/04/30 03:10:25;;;;;;;;;;;20.50;54.40;;;;;;5023483;28;19921;-52
2022/04/30 03:12:51;;;;;;;;;;;20.50;54.30;;;;;;5024237;28;20405;-55
2022/04/30 03:15:19;;;;;;;;;;;20.50;54.30;;;;;;5023485;28;19917;-56
2022/04/30 03:23:13;;;;;;;;;;;20.50;54.30;;;;;;5024056;28;19921;-54
2022/04/30 03:25:38;;;;;;;;;;;20.50;54.40;;;;;;5026231;28;19921;-53
2022/04/30 03:28:04;;;;;;;;;;;20.50;54.30;;;;;;5027838;28;19952;-55
2022/04/30 03:30:29;;;;;;;;;;;20.40;54.20;;;;;;5026924;28;20017;-54
2022/04/30 03:32:55;;;;;;;;;;;20.40;54.10;;;;;;5025699;28;20542;-52
2022/04/30 03:35:20;;;;;;;;;;;20.50;54.20;;;;;;5027393;28;20414;-52
2022/04/30 03:37:46;;;;;;;;;;;20.40;54.20;;;;;;5027646;28;20008;-52
2022/04/30 03:40:13;;;;;;;;;;;20.40;54.20;;;;;;5027588;28;19913;-54
2022/04/30 03:42:39;;;;;;;;;;;20.40;54.20;;;;;;5027677;28;20092;-52
2022/04/30 03:45:05;;;;;;;;;;;20.40;54.20;;;;;;5026281;28;20358;-54
2022/04/30 03:47:30;;;;;;;;;;;20.40;54.20;;;;;;5026189;28;20000;-55
2022/04/30 03:49:56;;;;;;;;;;;20.40;54.20;;;;;;5027272;28;19917;-53
2022/04/30 03:52:22;;;;;;;;;;;20.40;54.20;;;;;;5027330;28;19924;-55
2022/04/30 03:54:47;;;;;;;;;;;20.40;54.20;;;;;;5026846;28;19939;-54
2022/04/30 03:57:13;;;;;;;;;;;20.40;54.20;;;;;;5028107;28;19917;-55
2022/04/30 03:59:38;;;;;;;;;;;20.40;54.20;;;;;;5027600;28;19984;-55
2022/04/30 04:02:04;;;;;;;;;;;20.40;54.30;;;;;;5023898;28;19920;-51
2022/04/30 04:04:29;;;;;;;;;;;20.40;54.30;;;;;;5027073;28;19983;-52
2022/04/30 04:06:55;;;;;;;;;;;20.40;54.20;;;;;;5026938;28;19917;-52
2022/04/30 04:09:21;;;;;;;;;;;20.40;54.20;;;;;;5022604;28;20000;-53
2022/04/30 04:11:46;;;;;;;;;;;20.40;54.30;;;;;;5026227;28;20020;-51
2022/04/30 04:19:41;;;;;;;;;;;20.40;54.30;;;;;;5026535;28;19936;-52
2022/04/30 04:22:06;;;;;;;;;;;20.30;54.20;;;;;;5027195;28;20631;-53
2022/04/30 04:27:17;;;;;;;;;;;20.30;54.20;;;;;;5026819;28;19939;-52
2022/04/30 04:29:42;;;;;;;;;;;20.30;54.20;;;;;;5027072;28;19966;-53
2022/04/30 04:32:08;;;;;;;;;;;20.30;54.20;;;;;;5026604;28;19917;-53
2022/04/30 04:34:33;;;;;;;;;;;20.30;54.20;;;;;;5026880;28;19914;-54
2022/04/30 04:36:59;;;;;;;;;;;20.30;54.20;;;;;;5026041;28;19929;-52
2022/04/30 04:39:24;;;;;;;;;;;20.30;54.20;;;;;;5026371;28;19951;-52
2022/04/30 04:41:50;;;;;;;;;;;20.30;54.20;;;;;;5025449;28;20299;-53
2022/04/30 04:44:15;;;;;;;;;;;20.30;54.20;;;;;;5027485;28;19944;-52
2022/04/30 04:46:41;;;;;;;;;;;20.30;54.20;;;;;;5027076;28;19917;-52
2022/04/30 04:49:06;;;;;;;;;;;20.30;54.30;;;;;;5026014;28;19957;-52
2022/04/30 04:51:32;;;;;;;;;;;20.30;54.20;;;;;;5026329;28;19933;-54
2022/04/30 04:53:57;;;;;;;;;;;20.30;54.20;;;;;;5026728;28;19913;-55
2022/04/30 04:56:23;;;;;;;;;;;20.30;54.20;;;;;;5026359;28;20528;-54
2022/04/30 04:58:48;;;;;;;;;;;20.30;54.20;;;;;;5026087;28;19920;-55
2022/04/30 05:01:14;;;;;;;;;;;20.30;54.20;;;;;;5027113;28;19920;-52
2022/04/30 05:03:40;;;;;;;;;;;20.30;54.30;;;;;;5026519;28;20188;-52
2022/04/30 05:06:05;;;;;;;;;;;20.30;54.30;;;;;;5026012;28;19925;-54
2022/04/30 05:08:31;;;;;;;;;;;20.30;54.40;;;;;;5025432;28;19917;-53
2022/04/30 05:10:56;;;;;;;;;;;20.30;54.40;;;;;;5026190;28;19913;-54
2022/04/30 05:13:21;;;;;;;;;;;20.20;54.40;;;;;;5031635;22;19929;-53
2022/04/30 05:15:47;;;;;;;;;;;20.30;54.40;;;;;;5025700;28;19920;-53
2022/04/30 05:18:12;;;;;;;;;;;20.20;54.40;;;;;;5025721;28;20414;-54
2022/04/30 05:20:39;;;;;;;;;;;20.20;54.40;;;;;;5024977;28;19917;-53
2022/04/30 05:23:04;;;;;;;;;;;20.20;54.40;;;;;;5025568;28;19917;-53
2022/04/30 05:25:30;;;;;;;;;;;20.30;54.40;;;;;;5025382;28;20013;-54
2022/04/30 05:27:56;;;;;;;;;;;20.20;54.40;;;;;;5025909;28;20297;-52
2022/04/30 05:30:22;;;;;;;;;;;20.20;54.40;;;;;;5025735;28;19913;-55
2022/04/30 05:32:47;;;;;;;;;;;20.20;54.30;;;;;;5025093;28;19929;-52
2022/04/30 05:35:13;;;;;;;;;;;20.20;54.40;;;;;;5025992;28;19983;-55
2022/04/30 05:37:40;;;;;;;;;;;20.20;54.40;;;;;;5023993;28;19917;-53
2022/04/30 05:40:06;;;;;;;;;;;20.20;54.40;;;;;;5024661;28;19919;-54
2022/04/30 05:42:31;;;;;;;;;;;20.20;54.40;;;;;;5016019;28;20552;-54
2022/04/30 05:44:57;;;;;;;;;;;20.20;54.40;;;;;;5038164;28;19918;-53
2022/04/30 05:47:22;;;;;;;;;;;20.20;54.40;;;;;;5023349;28;19924;-52
2022/04/30 05:49:47;;;;;;;;;;;20.20;54.40;;;;;;5025052;28;19933;-53
2022/04/30 05:52:13;;;;;;;;;;;20.20;54.40;;;;;;5026288;28;19923;-53
2022/04/30 05:54:38;;;;;;;;;;;20.20;54.40;;;;;;5025897;28;19922;-52
2022/04/30 05:57:04;;;;;;;;;;;20.20;54.40;;;;;;5025409;28;19914;-52
2022/04/30 05:59:29;;;;;;;;;;;20.20;54.40;;;;;;5024795;28;19913;-53
2022/04/30 06:01:55;;;;;;;;;;;20.30;54.40;;;;;;5025171;28;20073;-55
2022/04/30 06:04:21;;;;;;;;;;;20.20;54.30;;;;;;5025409;28;19917;-53
2022/04/30 06:06:46;;;;;;;;;;;20.20;54.40;;;;;;5024979;28;19921;-53
2022/04/30 06:09:12;;;;;;;;;;;20.20;54.40;;;;;;5023453;28;20344;-54
2022/04/30 06:11:38;;;;;;;;;;;20.20;54.40;;;;;;5024511;28;19914;-56
2022/04/30 06:14:03;;;;;;;;;;;20.20;54.40;;;;;;5024554;28;19921;-53
2022/04/30 06:16:29;;;;;;;;;;;20.20;54.30;;;;;;5024529;28;19913;-52
2022/04/30 06:18:54;;;;;;;;;;;20.20;54.30;;;;;;5023683;28;19913;-54
2022/04/30 06:21:22;;;;;;;;;;;20.20;54.30;;;;;;5024478;28;19913;-52
2022/04/30 06:23:47;;;;;;;;;;;20.20;54.30;;;;;;5024559;28;19928;-52
2022/04/30 06:26:13;;;;;;;;;;;20.20;54.30;;;;;;5024943;28;19920;-53
2022/04/30 06:28:39;;;;;;;;;;;20.20;54.30;;;;;;5023345;28;20007;-52
2022/04/30 06:31:04;;;;;;;;;;;20.20;54.40;;;;;;5024127;28;20016;-54
2022/04/30 06:33:30;;;;;;;;;;;20.20;54.30;;;;;;5023436;28;19913;-54
2022/04/30 06:35:55;;;;;;;;;;;20.20;54.40;;;;;;5024223;28;19949;-54
2022/04/30 06:38:21;;;;;;;;;;;20.20;54.40;;;;;;5006268;28;19920;-55
2022/04/30 06:40:47;;;;;;;;;;;20.20;54.40;;;;;;5023983;28;19917;-52
2022/04/30 06:43:13;;;;;;;;;;;20.20;54.40;;;;;;5024353;28;19913;-53
2022/04/30 06:45:39;;;;;;;;;;;20.20;54.40;;;;;;5023319;28;19966;-53
2022/04/30 06:48:04;;;;;;;;;;;20.20;54.40;;;;;;5023857;28;19913;-52
2022/04/30 06:50:30;;;;;;;;;;;20.20;54.40;;;;;;5021503;28;20024;-54
2022/04/30 06:58:24;;;;;;;;;;;20.30;54.60;;;;;;5023113;28;19967;-55
2022/04/30 07:03:23;;;;;;;;;;;20.40;54.40;;;;;;5004590;28;20015;-53
2022/04/30 07:05:52;;;;;;;;;;;20.50;54.30;;;;;;5005076;28;19921;-53
2022/04/30 07:08:18;;;;;;;;;;;20.50;54.20;;;;;;5022505;28;19920;-53
2022/04/30 07:10:43;;;;;;;;;;;20.50;54.20;;;;;;5021855;28;19913;-54
2022/04/30 07:13:09;;;;;;;;;;;20.50;54.20;;;;;;5021922;28;19955;-54
2022/04/30 07:15:34;;;;;;;;;;;20.50;54.20;;;;;;5023280;28;19917;-54
2022/04/30 07:17:59;;;;;;;;;;;20.50;54.20;;;;;;5023248;28;19913;-52
2022/04/30 07:20:25;;;;;;;;;;;20.50;54.40;;;;;;5023039;28;19967;-54
2022/04/30 07:22:51;;;;;;;;;;;20.50;54.90;;;;;;5022962;28;19920;-54
2022/04/30 07:25:17;;;;;;;;;;;20.60;55.20;;;;;;5024192;28;19931;-54
2022/04/30 07:27:42;;;;;;;;;;;20.50;55.20;;;;;;5022902;28;19921;-53
2022/04/30 07:30:08;;;;;;;;;;;20.50;55.10;;;;;;5022751;28;19913;-54
2022/04/30 07:32:33;;;;;;;;;;;20.50;55.20;;;;;;5006078;28;19968;-53
2022/04/30 07:34:58;;;;;;;;;;;20.40;55.10;;;;;;5023474;28;20282;-55
2022/04/30 07:37:24;;;;;;;;;;;20.40;55.10;;;;;;5023475;28;19914;-51
2022/04/30 07:39:49;;;;;;;;;;;20.40;55.00;;;;;;5023772;28;19917;-52
2022/04/30 07:42:15;;;;;;;;;;;20.40;55.00;;;;;;5023269;28;20388;-54
2022/04/30 07:44:40;;;;;;;;;;;20.40;55.00;;;;;;5020188;28;19921;-52
2022/04/30 07:47:06;;;;;;;;;;;20.30;54.90;;;;;;5023069;28;19921;-54
2022/04/30 07:49:31;;;;;;;;;;;20.40;54.90;;;;;;5022680;28;19913;-53
2022/04/30 07:51:57;;;;;;;;;;;20.30;54.80;;;;;;5023518;28;19920;-52
2022/04/30 07:54:22;;;;;;;;;;;20.30;54.90;;;;;;5023567;28;20302;-53
2022/04/30 07:56:52;;;;;;;;;;;20.30;54.90;;;;;;5023941;28;20004;-53
2022/04/30 07:59:17;;;;;;;;;;;20.30;54.80;;;;;;5022595;28;20344;-52
2022/04/30 08:01:43;;;;;;;;;;;20.30;54.80;;;;;;4995748;28;19928;-52
2022/04/30 08:04:08;;;;;;;;;;;20.30;55.10;;;;;;5023035;28;20386;-52
2022/04/30 08:06:34;;;;;;;;;;;20.30;55.20;;;;;;5023452;28;19918;-54
2022/04/30 08:08:59;;;;;;;;;;;20.30;55.10;;;;;;5022751;28;19914;-53
2022/04/30 08:11:24;;;;;;;;;;;20.30;55.10;;;;;;5024793;28;20350;-51
2022/04/30 08:13:50;;;;;;;;;;;20.30;55.10;;;;;;5026958;28;19987;-52
2022/04/30 08:16:15;;;;;;;;;;;20.30;55.10;;;;;;5026800;28;19920;-54
2022/04/30 08:18:41;;;;;;;;;;;20.30;55.20;;;;;;5025950;28;20011;-53
2022/04/30 08:21:06;;;;;;;;;;;20.30;55.70;;;;;;5026468;28;20578;-55
2022/04/30 08:23:33;;;;;;;;;;;20.30;56.90;;;;;;5026899;28;19940;-55
2022/04/30 08:25:58;;;;;;;;;;;20.40;57.20;;;;;;5026624;28;19928;-55
2022/04/30 08:28:24;;;;;;;;;;;20.40;57.20;;;;;;5025969;28;19919;-52
2022/04/30 08:30:49;;;;;;;;;;;20.40;57.10;;;;;;5027384;28;19913;-51
2022/04/30 08:33:15;;;;;;;;;;;20.40;57.10;;;;;;5026194;28;19913;-52
2022/04/30 08:35:40;;;;;;;;;;;20.40;57.80;;;;;;5023284;28;19921;-52
2022/04/30 08:38:06;;;;;;;;;;;20.50;57.50;;;;;;5026661;28;20445;-54
2022/04/30 08:40:31;;;;;;;;;;;20.50;57.40;;;;;;5027284;28;19919;-56
2022/04/30 08:43:05;;;;;;;;;;;20.70;57.50;;;;;;5024997;28;19975;-52
2022/04/30 08:45:31;;;;;;;;;;;20.80;57.40;;;;;;5026632;28;20370;-54
2022/04/30 08:47:57;;;;;;;;;;;20.80;57.20;;;;;;5008903;28;19995;-52
2022/04/30 08:50:22;;;;;;;;;;;20.90;57.10;;;;;;5025099;28;19917;-53
2022/04/30 08:52:48;;;;;;;;;;;21.00;57.30;;;;;;5025425;28;19913;-52
2022/04/30 08:55:13;;;;;;;;;;;21.00;57.20;;;;;;5026565;28;19920;-53
2022/04/30 08:57:39;;;;;;;;;;;21.00;57.10;;;;;;5025679;28;20421;-53
2022/04/30 09:00:04;;;;;;;;;;;21.00;57.30;;;;;;5025694;28;19913;-52
2022/04/30 09:02:30;;;;;;;;;;;21.10;57.50;;;;;;5026618;28;20418;-53
2022/04/30 09:04:55;;;;;;;;;;;21.10;57.40;;;;;;5026360;28;19919;-54
2022/04/30 09:07:21;;;;;;;;;;;21.10;57.50;;;;;;5020847;28;19953;-53
2022/04/30 09:09:57;;;;;;;;;;;21.10;57.70;;;;;;5023079;28;19917;-53
2022/04/30 09:12:23;;;;;;;;;;;21.20;57.70;;;;;;5025489;28;19928;-53
2022/04/30 09:14:48;;;;;;;;;;;21.10;57.00;;;;;;5023559;28;19921;-52
2022/04/30 09:17:14;;;;;;;;;;;21.10;56.70;;;;;;5023508;28;20286;-53
2022/04/30 09:19:46;;;;;;;;;;;21.00;56.40;;;;;;5007707;28;19917;-54
2022/04/30 09:22:11;;;;;;;;;;;21.00;56.20;;;;;;5024700;28;19922;-54
2022/04/30 09:24:43;;;;;;;;;;;21.00;56.00;;;;;;5007128;28;19939;-51
2022/04/30 09:27:09;;;;;;;;;;;21.00;55.90;;;;;;5025076;28;20011;-52
2022/04/30 09:29:34;;;;;;;;;;;20.90;55.80;;;;;;5007100;28;20439;-54
2022/04/30 09:32:00;;;;;;;;;;;20.90;56.10;;;;;;5025485;28;19913;-54
2022/04/30 09:39:56;;;;;;;;;;;20.90;55.50;;;;;;5024667;28;20436;-52
2022/04/30 09:42:21;;;;;;;;;;;20.90;55.30;;;;;;5007875;28;19913;-48
2022/04/30 09:44:47;;;;;;;;;;;20.90;55.30;;;;;;5024933;28;19920;-52
2022/04/30 09:47:12;;;;;;;;;;;20.90;55.20;;;;;;5024933;28;19917;-54
2022/04/30 09:55:07;;;;;;;;;;;20.90;55.30;;;;;;5024578;28;19923;-53
2022/04/30 09:57:34;;;;;;;;;;;20.90;55.30;;;;;;5024922;28;19913;-54
2022/04/30 09:59:59;;;;;;;;;;;20.90;55.30;;;;;;5023177;28;20312;-52
2022/04/30 10:02:25;;;;;;;;;;;20.90;55.20;;;;;;5024868;28;20012;-54
2022/04/30 10:04:50;;;;;;;;;;;20.80;55.10;;;;;;5007350;28;20118;-53
2022/04/30 10:07:18;;;;;;;;;;;20.80;55.00;;;;;;5007150;28;19917;-52
2022/04/30 10:09:50;;;;;;;;;;;20.80;55.00;;;;;;5006000;28;19990;-52
2022/04/30 10:12:26;;;;;;;;;;;20.80;54.90;;;;;;5007624;28;20003;-51
2022/04/30 10:14:58;;;;;;;;;;;20.80;54.90;;;;;;5019607;28;19925;-53
2022/04/30 10:17:25;;;;;;;;;;;20.80;54.90;;;;;;5006265;28;19917;-52
2022/04/30 10:19:58;;;;;;;;;;;20.80;54.80;;;;;;5024893;28;19920;-52
2022/04/30 10:22:23;;;;;;;;;;;20.80;54.70;;;;;;5024501;28;19920;-53
2022/04/30 10:24:49;;;;;;;;;;;20.80;54.60;;;;;;5024526;28;19913;-52
2022/04/30 10:27:15;;;;;;;;;;;20.80;54.70;;;;;;5021953;28;19959;-53
2022/04/30 10:29:54;;;;;;;;;;;20.80;54.60;;;;;;5017997;28;20310;-51
2022/04/30 10:32:32;;;;;;;;;;;20.80;54.50;;;;;;5025162;28;20482;-52
2022/04/30 10:34:57;;;;;;;;;;;20.80;54.50;;;;;;5039950;22;19996;-53
2022/04/30 10:37:29;;;;;;;;;;;20.70;54.50;;;;;;5044028;28;20103;-55
2022/04/30 10:39:55;;;;;;;;;;;20.80;54.50;;;;;;5042640;28;20007;-56
2022/04/30 10:42:27;;;;;;;;;;;20.80;54.50;;;;;;5045593;28;20043;-54
2022/04/30 10:44:56;;;;;;;;;;;20.80;54.50;;;;;;5044237;28;19913;-54
2022/04/30 10:47:21;;;;;;;;;;;20.70;54.40;;;;;;5039555;28;19917;-56
2022/04/30 10:49:47;;;;;;;;;;;20.70;54.30;;;;;;5043988;28;19913;-56
2022/04/30 10:52:12;;;;;;;;;;;20.70;54.30;;;;;;5043984;28;19988;-55
2022/04/30 10:54:38;;;;;;;;;;;20.70;54.30;;;;;;5042246;28;19913;-56
2022/04/30 10:57:04;;;;;;;;;;;20.70;54.30;;;;;;5041874;28;19913;-55
2022/04/30 10:59:29;;;;;;;;;;;20.70;54.40;;;;;;5042866;28;19917;-54
2022/04/30 11:01:55;;;;;;;;;;;20.70;54.40;;;;;;5044495;28;19920;-55
2022/04/30 11:04:20;;;;;;;;;;;20.70;54.40;;;;;;5043920;28;19913;-54
2022/04/30 11:06:46;;;;;;;;;;;20.70;54.40;;;;;;5042427;28;21496;-56
2022/04/30 11:09:11;;;;;;;;;;;20.70;54.50;;;;;;5043328;28;20560;-58
2022/04/30 11:11:36;;;;;;;;;;;20.70;54.40;;;;;;5043518;28;19923;-58
2022/04/30 11:14:05;;;;;;;;;;;20.70;55.10;;;;;;5043855;28;19939;-53
2022/04/30 11:16:31;;;;;;;;;;;20.80;55.70;;;;;;5043633;28;19936;-55
2022/04/30 11:18:58;;;;;;;;;;;20.80;55.90;;;;;;5043441;28;20373;-56
2022/04/30 11:21:28;;;;;;;;;;;20.80;55.70;;;;;;5043377;28;20258;-54
2022/04/30 11:23:54;;;;;;;;;;;20.80;55.90;;;;;;5040275;28;19921;-56
2022/04/30 11:26:19;;;;;;;;;;;20.80;55.90;;;;;;5061197;28;19923;-53
2022/04/30 11:28:46;;;;;;;;;;;20.90;55.40;;;;;;5063405;28;19912;-51
2022/04/30 11:31:12;;;;;;;;;;;20.80;55.20;;;;;;5052222;28;19940;-53
2022/04/30 11:33:38;;;;;;;;;;;20.80;55.60;;;;;;5041374;28;20644;-54
2022/04/30 11:36:03;;;;;;;;;;;20.80;56.20;;;;;;5043022;28;19916;-54
2022/04/30 11:38:29;;;;;;;;;;;20.80;56.80;;;;;;5043153;28;19922;-53
2022/04/30 11:41:12;;;;;;;;;;;20.80;57.20;;;;;;5043792;28;19961;-52
2022/04/30 11:43:39;;;;;;;;;;;20.90;57.70;;;;;;5043060;28;20659;-57
2022/04/30 11:46:04;;;;;;;;;;;20.90;57.90;;;;;;5044776;28;19920;-55
2022/04/30 11:48:39;;;;;;;;;;;21.00;58.00;;;;;;5046434;28;20409;-58
2022/04/30 11:51:05;;;;;;;;;;;21.00;58.00;;;;;;5047302;28;19971;-56
2022/04/30 11:53:30;;;;;;;;;;;21.00;58.30;;;;;;5047265;28;19920;-57
2022/04/30 11:55:56;;;;;;;;;;;21.00;58.80;;;;;;5047103;28;19913;-58
2022/04/30 11:58:21;;;;;;;;;;;21.00;59.80;;;;;;5047022;28;19967;-57
2022/04/30 12:00:51;;;;;;;;;;;21.00;60.70;;;;;;5046397;28;19928;-55
2022/04/30 12:03:24;;;;;;;;;;;21.10;61.70;;;;;;5047424;28;19913;-58
2022/04/30 12:05:51;;;;;;;;;;;21.10;61.60;;;;;;5047337;28;20328;-57
2022/04/30 12:08:17;;;;;;;;;;;21.10;61.30;;;;;;5045621;28;19952;-56
2022/04/30 12:10:42;;;;;;;;;;;21.10;61.10;;;;;;5046968;28;19940;-57
2022/04/30 12:13:08;;;;;;;;;;;21.10;61.30;;;;;;5047362;28;19921;-58
2022/04/30 12:15:33;;;;;;;;;;;21.10;61.90;;;;;;5045564;28;19920;-52
2022/04/30 12:26:51;;;;;;;;;;;21.10;60.90;;;;;;5047217;28;20158;-55
2022/04/30 12:29:19;;;;;;;;;;;21.10;60.40;;;;;;5047175;28;19913;-58
2022/04/30 12:31:46;;;;;;;;;;;21.10;60.20;;;;;;5045990;28;19951;-57
2022/04/30 12:34:16;;;;;;;;;;;21.10;59.90;;;;;;5047193;28;19934;-56
2022/04/30 12:36:49;;;;;;;;;;;21.10;60.00;;;;;;5047031;28;19948;-57
2022/04/30 12:39:16;;;;;;;;;;;21.20;59.90;;;;;;5046735;28;20491;-53
2022/04/30 12:41:41;;;;;;;;;;;21.10;59.70;;;;;;5046748;28;19967;-57
2022/04/30 12:44:07;;;;;;;;;;;21.10;59.60;;;;;;5044569;28;19913;-53
2022/04/30 12:46:32;;;;;;;;;;;21.00;59.50;;;;;;5046490;28;20387;-56
2022/04/30 12:48:58;;;;;;;;;;;21.00;59.40;;;;;;5045835;28;19927;-56
2022/04/30 12:51:23;;;;;;;;;;;20.90;59.20;;;;;;5047181;28;19913;-55
2022/04/30 12:53:48;;;;;;;;;;;20.90;59.10;;;;;;5047253;28;19913;-53
2022/04/30 12:56:14;;;;;;;;;;;20.90;59.20;;;;;;5046767;28;20382;-58
2022/04/30 12:58:39;;;;;;;;;;;20.90;59.50;;;;;;5046183;28;20396;-58
2022/04/30 13:01:05;;;;;;;;;;;20.90;58.90;;;;;;5044994;28;19913;-57
2022/04/30 13:03:31;;;;;;;;;;;20.90;58.50;;;;;;5046525;28;19978;-58
2022/04/30 13:05:57;;;;;;;;;;;20.90;58.30;;;;;;5046840;28;19921;-56
2022/04/30 13:08:23;;;;;;;;;;;20.90;58.10;;;;;;5045693;28;19920;-54
2022/04/30 13:13:34;;;;;;;;;;;21.00;58.00;;;;;;5045878;28;19920;-57
2022/04/30 13:16:03;;;;;;;;;;;21.00;57.30;;;;;;5045754;28;19917;-55
2022/04/30 13:18:28;;;;;;;;;;;21.00;56.90;;;;;;5045116;28;19967;-54
2022/04/30 13:20:54;;;;;;;;;;;21.00;56.20;;;;;;5059951;28;19916;-54
2022/04/30 13:23:19;;;;;;;;;;;21.00;55.70;;;;;;5052755;28;20093;-57
2022/04/30 13:25:45;;;;;;;;;;;21.00;55.50;;;;;;5046945;28;20411;-56
2022/04/30 13:28:10;;;;;;;;;;;20.90;55.20;;;;;;5045022;28;19920;-56
2022/04/30 13:30:36;;;;;;;;;;;20.90;54.90;;;;;;5045369;28;19917;-56
2022/04/30 13:33:01;;;;;;;;;;;20.90;54.70;;;;;;5046684;28;19940;-52
2022/04/30 13:35:27;;;;;;;;;;;20.90;54.20;;;;;;5047121;28;19932;-55
2022/04/30 13:37:54;;;;;;;;;;;20.90;53.50;;;;;;5045309;28;19913;-56
2022/04/30 13:40:19;;;;;;;;;;;20.90;53.30;;;;;;5049455;28;19912;-52
2022/04/30 13:42:45;;;;;;;;;;;20.90;53.20;;;;;;5060711;28;19913;-57
2022/04/30 13:45:12;;;;;;;;;;;20.90;53.30;;;;;;5046467;28;19913;-54
2022/04/30 13:47:37;;;;;;;;;;;20.80;53.10;;;;;;5045073;28;19921;-55
2022/04/30 13:50:04;;;;;;;;;;;20.90;52.40;;;;;;5046631;28;19920;-57
2022/04/30 13:52:30;;;;;;;;;;;20.80;52.00;;;;;;5046763;28;19920;-55
2022/04/30 13:54:56;;;;;;;;;;;20.90;52.30;;;;;;5047413;28;19920;-54
2022/04/30 13:57:21;;;;;;;;;;;20.90;52.10;;;;;;5046623;28;19912;-58
2022/04/30 13:59:46;;;;;;;;;;;20.90;52.30;;;;;;5044194;28;19920;-57
2022/04/30 14:02:12;;;;;;;;;;;20.90;52.40;;;;;;5046787;28;20301;-55
2022/04/30 14:04:37;;;;;;;;;;;20.80;52.30;;;;;;5046394;28;19913;-59
2022/04/30 14:07:03;;;;;;;;;;;20.80;52.20;;;;;;5046837;28;19917;-52
2022/04/30 14:09:29;;;;;;;;;;;20.80;52.10;;;;;;5045925;28;19920;-52
2022/04/30 14:11:54;;;;;;;;;;;20.80;52.00;;;;;;5047073;28;19919;-53
2022/04/30 14:19:51;;;;;;;;;;;20.80;52.20;;;;;;5046035;28;19963;-57
2022/04/30 14:22:17;;;;;;;;;;;20.80;52.10;;;;;;5046556;28;20011;-56
2022/04/30 14:24:42;;;;;;;;;;;20.80;52.00;;;;;;5045939;28;20003;-56
2022/04/30 14:27:08;;;;;;;;;;;20.80;52.10;;;;;;5045438;28;19917;-54
2022/04/30 14:29:33;;;;;;;;;;;20.80;52.20;;;;;;5046086;28;20024;-56
2022/04/30 14:31:59;;;;;;;;;;;20.80;52.00;;;;;;5046312;28;19920;-57
2022/04/30 14:34:24;;;;;;;;;;;20.80;51.70;;;;;;5046733;28;19970;-58
2022/04/30 14:36:50;;;;;;;;;;;20.80;51.70;;;;;;5045985;28;19917;-55
2022/04/30 14:39:16;;;;;;;;;;;20.80;51.60;;;;;;5044293;28;19913;-58
2022/04/30 14:41:41;;;;;;;;;;;20.80;51.50;;;;;;5046092;28;19913;-58
2022/04/30 14:44:07;;;;;;;;;;;20.80;51.20;;;;;;5046539;28;19920;-55
2022/04/30 14:46:32;;;;;;;;;;;20.80;51.10;;;;;;5046461;28;20377;-55
2022/04/30 14:48:58;;;;;;;;;;;20.80;51.00;;;;;;5042608;28;19913;-57
2022/04/30 14:51:23;;;;;;;;;;;20.80;51.00;;;;;;5044883;28;19912;-58
2022/04/30 14:53:49;;;;;;;;;;;20.80;51.10;;;;;;5043981;28;19921;-59
2022/04/30 14:56:15;;;;;;;;;;;20.80;51.00;;;;;;5044725;28;19919;-55
2022/04/30 14:58:40;;;;;;;;;;;20.80;50.90;;;;;;5042847;28;20293;-55
2022/04/30 15:01:06;;;;;;;;;;;20.70;51.00;;;;;;5043890;28;20722;-55
2022/04/30 15:03:32;;;;;;;;;;;20.70;51.00;;;;;;5042878;28;19920;-57
2022/04/30 15:05:57;;;;;;;;;;;20.70;50.60;;;;;;5043674;28;19913;-56
2022/04/30 15:08:23;;;;;;;;;;;20.70;50.10;;;;;;5043327;28;19926;-57
2022/04/30 15:10:48;;;;;;;;;;;20.80;50.20;;;;;;5042271;28;19944;-56